VIS870 RKSS-RJFK
Flight info
| Callsign | VIS870 |
|---|---|
| Flight time | 1h 32m |
| Altitude | 41000 |
| Route | RKSS/32L OSPOT2T OSPOT Y782 TGU Y781 BESNA Y209 IKE A582 HKC |
| Aircraft | B748/H-SDE3FGHIM1M2RWXY/LB1 |
Departure
| Time | 2026-04-30 13:40 |
|---|---|
| Airport | Gimpo International Airport (RKSS) |
Arrival
| Time | 2026-04-30 15:13 |
|---|---|
| Airport | Kagoshima Airport (RJFK) |
| Time | Latitude | Longitude | Altitude | Speed | Heading |
|---|---|---|---|---|---|
| 2026-04-30 12:57 | 37.55069 | 126.80829 | 57 ft | 0 kts | 44° |
| 2026-04-30 13:27 | 37.55066 | 126.80829 | 64 ft | 0 kts | 65° |
| 2026-04-30 13:28 | 37.55064 | 126.80828 | 64 ft | 0 kts | 79° |
| 2026-04-30 13:31 | 37.55094 | 126.80885 | 55 ft | 1 kts | 80° |
| 2026-04-30 13:32 | 37.55071 | 126.80935 | 59 ft | 7 kts | 137° |
| 2026-04-30 13:32 | 37.55005 | 126.80961 | 58 ft | 6 kts | 202° |
| 2026-04-30 13:33 | 37.54961 | 126.80904 | 57 ft | 3 kts | 242° |
| 2026-04-30 13:33 | 37.54967 | 126.80785 | 60 ft | 9 kts | 290° |
| 2026-04-30 13:34 | 37.55004 | 126.80726 | 55 ft | 9 kts | 314° |
| 2026-04-30 13:34 | 37.55124 | 126.80568 | 57 ft | 0 kts | 300° |
| 2026-04-30 13:35 | 37.55129 | 126.80558 | 58 ft | 7 kts | 298° |
| 2026-04-30 13:35 | 37.55117 | 126.80478 | 55 ft | 0 kts | 222° |
| 2026-04-30 13:37 | 37.54937 | 126.80253 | 59 ft | 41 kts | 226° |
| 2026-04-30 13:38 | 37.54873 | 126.80176 | 60 ft | 0 kts | 224° |
| 2026-04-30 13:39 | 37.54872 | 126.80175 | 65 ft | 1 kts | 224° |
| 2026-04-30 13:39 | 37.54869 | 126.80014 | 60 ft | 12 kts | 312° |
| 2026-04-30 13:40 | 37.54972 | 126.79881 | 56 ft | 56 kts | 315° |
| 2026-04-30 13:40 | 37.55542 | 126.79169 | 61 ft | 170 kts | 315° |
| 2026-04-30 13:40 | 37.56495 | 126.78036 | 780 ft | 185 kts | 317° |
| 2026-04-30 13:40 | 37.57348 | 126.77055 | 2395 ft | 152 kts | 315° |
| 2026-04-30 13:41 | 37.58067 | 126.76122 | 3553 ft | 153 kts | 316° |
| 2026-04-30 13:41 | 37.58916 | 126.75090 | 4223 ft | 188 kts | 317° |
| 2026-04-30 13:41 | 37.59936 | 126.73827 | 4953 ft | 224 kts | 313° |
| 2026-04-30 13:41 | 37.61012 | 126.72281 | 5851 ft | 250 kts | 305° |
| 2026-04-30 13:42 | 37.62016 | 126.70368 | 6946 ft | 272 kts | 295° |
| 2026-04-30 13:42 | 37.62703 | 126.68119 | 8256 ft | 279 kts | 275° |
| 2026-04-30 13:42 | 37.61789 | 126.63557 | 11153 ft | 280 kts | 229° |
| 2026-04-30 13:43 | 37.60443 | 126.61612 | 11847 ft | 313 kts | 220° |
| 2026-04-30 13:43 | 37.58746 | 126.59652 | 12503 ft | 345 kts | 216° |
| 2026-04-30 13:43 | 37.56817 | 126.57758 | 13817 ft | 354 kts | 211° |
| 2026-04-30 13:43 | 37.54748 | 126.56217 | 15795 ft | 332 kts | 198° |
| 2026-04-30 13:44 | 37.52652 | 126.55551 | 18327 ft | 293 kts | 184° |
| 2026-04-30 13:44 | 37.50694 | 126.55385 | 20102 ft | 275 kts | 177° |
| 2026-04-30 13:44 | 37.48805 | 126.55482 | 21304 ft | 271 kts | 172° |
| 2026-04-30 13:44 | 37.46960 | 126.55708 | 22332 ft | 268 kts | 169° |
| 2026-04-30 13:45 | 37.43477 | 126.56910 | 24249 ft | 265 kts | 158° |
| 2026-04-30 13:45 | 37.41704 | 126.57830 | 24483 ft | 288 kts | 157° |
| 2026-04-30 13:45 | 37.39775 | 126.58889 | 24455 ft | 320 kts | 156° |
| 2026-04-30 13:46 | 37.37646 | 126.60141 | 24285 ft | 356 kts | 154° |
| 2026-04-30 13:46 | 37.35306 | 126.61590 | 24086 ft | 393 kts | 154° |
| 2026-04-30 13:46 | 37.32729 | 126.63010 | 23923 ft | 425 kts | 160° |
| 2026-04-30 13:46 | 37.29898 | 126.64347 | 24271 ft | 443 kts | 161° |
| 2026-04-30 13:47 | 37.27091 | 126.65986 | 25186 ft | 448 kts | 148° |
| 2026-04-30 13:47 | 37.24480 | 126.68255 | 25454 ft | 468 kts | 146° |
| 2026-04-30 13:47 | 37.21779 | 126.70727 | 25366 ft | 493 kts | 148° |
| 2026-04-30 13:47 | 37.18969 | 126.73036 | 25580 ft | 468 kts | 150° |
| 2026-04-30 13:48 | 37.16441 | 126.75403 | 25766 ft | 444 kts | 137° |
| 2026-04-30 13:48 | 37.14730 | 126.78521 | 25954 ft | 425 kts | 123° |
| 2026-04-30 13:48 | 37.13662 | 126.81897 | 26150 ft | 411 kts | 109° |
| 2026-04-30 13:48 | 37.13306 | 126.85345 | 26355 ft | 397 kts | 98° |
| 2026-04-30 13:49 | 37.13139 | 126.88698 | 26528 ft | 374 kts | 103° |
| 2026-04-30 13:49 | 37.12295 | 126.91555 | 26632 ft | 339 kts | 130° |
| 2026-04-30 13:49 | 37.10910 | 126.94004 | 26880 ft | 350 kts | 129° |
| 2026-04-30 13:49 | 37.09752 | 126.96723 | 27137 ft | 357 kts | 121° |
| 2026-04-30 13:50 | 37.08558 | 126.99431 | 27342 ft | 353 kts | 132° |
| 2026-04-30 13:50 | 37.05861 | 127.04605 | 27872 ft | 358 kts | 129° |
| 2026-04-30 13:50 | 37.04568 | 127.07282 | 28138 ft | 360 kts | 129° |
| 2026-04-30 13:51 | 37.03296 | 127.09942 | 28413 ft | 362 kts | 129° |
| 2026-04-30 13:51 | 37.02009 | 127.12650 | 28665 ft | 363 kts | 129° |
| 2026-04-30 13:51 | 37.00650 | 127.15310 | 28940 ft | 362 kts | 133° |
| 2026-04-30 13:51 | 36.99180 | 127.17862 | 29222 ft | 362 kts | 134° |
| 2026-04-30 13:52 | 36.97661 | 127.20379 | 29500 ft | 363 kts | 135° |
| 2026-04-30 13:52 | 36.96086 | 127.22842 | 29789 ft | 362 kts | 139° |
| 2026-04-30 13:52 | 36.94386 | 127.25149 | 30026 ft | 360 kts | 143° |
| 2026-04-30 13:52 | 36.92566 | 127.27279 | 30337 ft | 358 kts | 147° |
| 2026-04-30 13:53 | 36.90617 | 127.29240 | 30697 ft | 361 kts | 150° |
| 2026-04-30 13:53 | 36.88589 | 127.31058 | 31084 ft | 367 kts | 152° |
| 2026-04-30 13:53 | 36.86468 | 127.32879 | 31468 ft | 374 kts | 152° |
| 2026-04-30 13:53 | 36.85043 | 127.34187 | 31727 ft | 379 kts | 149° |
| 2026-04-30 13:54 | 36.82324 | 127.37026 | 32255 ft | 391 kts | 144° |
| 2026-04-30 13:54 | 36.80344 | 127.39411 | 32650 ft | 399 kts | 141° |
| 2026-04-30 13:54 | 36.78446 | 127.41987 | 33064 ft | 408 kts | 138° |
| 2026-04-30 13:54 | 36.76611 | 127.44723 | 33459 ft | 415 kts | 136° |
| 2026-04-30 13:55 | 36.74790 | 127.47550 | 33874 ft | 421 kts | 136° |
| 2026-04-30 13:55 | 36.72969 | 127.50432 | 34172 ft | 426 kts | 136° |
| 2026-04-30 13:55 | 36.71166 | 127.53334 | 34510 ft | 431 kts | 135° |
| 2026-04-30 13:55 | 36.69326 | 127.56313 | 34853 ft | 436 kts | 135° |
| 2026-04-30 13:56 | 36.67467 | 127.59325 | 35213 ft | 440 kts | 135° |
| 2026-04-30 13:56 | 36.65589 | 127.62359 | 35564 ft | 445 kts | 135° |
| 2026-04-30 13:56 | 36.63690 | 127.65420 | 35924 ft | 449 kts | 135° |
| 2026-04-30 13:56 | 36.61771 | 127.68507 | 36287 ft | 452 kts | 135° |
| 2026-04-30 13:57 | 36.59836 | 127.71610 | 36650 ft | 455 kts | 135° |
| 2026-04-30 13:57 | 36.57891 | 127.74737 | 37005 ft | 459 kts | 135° |
| 2026-04-30 13:57 | 36.55964 | 127.77852 | 37371 ft | 462 kts | 135° |
| 2026-04-30 13:57 | 36.54004 | 127.81027 | 37751 ft | 464 kts | 135° |
| 2026-04-30 13:58 | 36.52034 | 127.84218 | 38138 ft | 467 kts | 135° |
| 2026-04-30 13:58 | 36.48060 | 127.90643 | 38846 ft | 470 kts | 135° |
| 2026-04-30 13:58 | 36.46061 | 127.93865 | 39172 ft | 471 kts | 135° |
| 2026-04-30 13:59 | 36.44062 | 127.97085 | 39463 ft | 472 kts | 135° |
| 2026-04-30 13:59 | 36.42061 | 128.00326 | 39785 ft | 473 kts | 135° |
| 2026-04-30 13:59 | 36.40069 | 128.03569 | 40115 ft | 473 kts | 135° |
| 2026-04-30 13:59 | 36.38100 | 128.06778 | 40440 ft | 473 kts | 135° |
| 2026-04-30 14:00 | 36.36106 | 128.10010 | 40778 ft | 471 kts | 136° |
| 2026-04-30 14:00 | 36.31555 | 128.15777 | 40925 ft | 467 kts | 151° |
| 2026-04-30 14:00 | 36.28896 | 128.18105 | 40928 ft | 471 kts | 154° |
| 2026-04-30 14:01 | 36.23173 | 128.22193 | 40936 ft | 480 kts | 160° |
| 2026-04-30 14:01 | 36.18161 | 128.25365 | 40937 ft | 493 kts | 161° |
| 2026-04-30 14:02 | 36.10949 | 128.29774 | 40934 ft | 500 kts | 160° |
| 2026-04-30 14:02 | 36.04732 | 128.33611 | 40933 ft | 499 kts | 161° |
| 2026-04-30 14:03 | 35.98460 | 128.37289 | 40927 ft | 498 kts | 162° |
| 2026-04-30 14:03 | 35.92231 | 128.40897 | 40936 ft | 498 kts | 162° |
| 2026-04-30 14:04 | 35.86972 | 128.43935 | 40942 ft | 498 kts | 162° |
| 2026-04-30 14:04 | 35.79676 | 128.48141 | 40941 ft | 498 kts | 162° |
| 2026-04-30 14:05 | 35.73401 | 128.51751 | 40941 ft | 497 kts | 162° |
| 2026-04-30 14:05 | 35.68203 | 128.54761 | 40935 ft | 497 kts | 162° |
| 2026-04-30 14:06 | 35.57536 | 128.59187 | 40946 ft | 478 kts | 180° |
| 2026-04-30 14:07 | 35.47648 | 128.60012 | 40931 ft | 473 kts | 184° |
| 2026-04-30 14:08 | 35.38891 | 128.60555 | 40961 ft | 480 kts | 176° |
| 2026-04-30 14:08 | 35.35636 | 128.61658 | 40959 ft | 492 kts | 166° |
| 2026-04-30 14:08 | 35.29486 | 128.65499 | 40910 ft | 505 kts | 158° |
| 2026-04-30 14:09 | 35.23566 | 128.70108 | 40947 ft | 505 kts | 155° |
| 2026-04-30 14:10 | 35.14861 | 128.77319 | 40925 ft | 494 kts | 155° |
| 2026-04-30 14:10 | 35.12080 | 128.79675 | 40919 ft | 480 kts | 155° |
| 2026-04-30 14:10 | 35.09433 | 128.81982 | 40915 ft | 468 kts | 152° |
| 2026-04-30 14:11 | 35.04521 | 128.86910 | 40908 ft | 446 kts | 149° |
| 2026-04-30 14:11 | 35.02235 | 128.89377 | 40863 ft | 433 kts | 149° |
| 2026-04-30 14:11 | 35.00038 | 128.91820 | 40877 ft | 422 kts | 149° |
| 2026-04-30 14:12 | 34.95066 | 128.97539 | 40924 ft | 428 kts | 149° |
| 2026-04-30 14:12 | 34.91446 | 129.01724 | 40927 ft | 429 kts | 149° |
| 2026-04-30 14:13 | 34.87142 | 129.06700 | 40921 ft | 429 kts | 148° |
| 2026-04-30 14:13 | 34.82814 | 129.11698 | 40922 ft | 429 kts | 148° |
| 2026-04-30 14:14 | 34.78514 | 129.16698 | 40930 ft | 427 kts | 149° |
| 2026-04-30 14:14 | 34.74276 | 129.21683 | 40920 ft | 426 kts | 149° |
| 2026-04-30 14:15 | 34.70021 | 129.26696 | 40922 ft | 426 kts | 148° |
| 2026-04-30 14:15 | 34.65703 | 129.31566 | 40920 ft | 418 kts | 154° |
| 2026-04-30 14:15 | 34.63381 | 129.33633 | 40914 ft | 407 kts | 160° |
| 2026-04-30 14:16 | 34.60977 | 129.35399 | 40888 ft | 402 kts | 163° |
| 2026-04-30 14:16 | 34.56149 | 129.38596 | 40935 ft | 393 kts | 165° |
| 2026-04-30 14:17 | 34.51341 | 129.41670 | 40929 ft | 394 kts | 166° |
| 2026-04-30 14:17 | 34.46484 | 129.44745 | 40928 ft | 394 kts | 166° |
| 2026-04-30 14:18 | 34.41622 | 129.47815 | 40930 ft | 394 kts | 166° |
| 2026-04-30 14:18 | 34.34201 | 129.51546 | 40924 ft | 379 kts | 174° |
| 2026-04-30 14:19 | 34.26737 | 129.54505 | 40921 ft | 377 kts | 175° |
| 2026-04-30 14:20 | 34.21744 | 129.56436 | 40921 ft | 377 kts | 175° |
| 2026-04-30 14:20 | 34.14282 | 129.59325 | 40908 ft | 371 kts | 175° |
| 2026-04-30 14:21 | 34.09392 | 129.61282 | 40908 ft | 371 kts | 175° |
| 2026-04-30 14:22 | 34.02061 | 129.64234 | 40916 ft | 372 kts | 175° |
| 2026-04-30 14:22 | 33.94683 | 129.67200 | 40901 ft | 373 kts | 175° |
| 2026-04-30 14:23 | 33.84870 | 129.71137 | 40892 ft | 373 kts | 175° |
| 2026-04-30 14:24 | 33.80179 | 129.74340 | 40895 ft | 408 kts | 155° |
| 2026-04-30 14:24 | 33.78033 | 129.76629 | 40883 ft | 416 kts | 152° |
| 2026-04-30 14:25 | 33.73570 | 129.80661 | 40864 ft | 384 kts | 169° |
| 2026-04-30 14:25 | 33.68688 | 129.82784 | 40893 ft | 368 kts | 177° |
| 2026-04-30 14:26 | 33.61333 | 129.85119 | 40896 ft | 367 kts | 179° |
| 2026-04-30 14:26 | 33.56285 | 129.86602 | 40896 ft | 380 kts | 179° |
| 2026-04-30 14:27 | 33.53683 | 129.87341 | 40902 ft | 387 kts | 179° |
| 2026-04-30 14:27 | 33.48338 | 129.88817 | 40894 ft | 401 kts | 179° |
| 2026-04-30 14:28 | 33.42847 | 129.90920 | 40903 ft | 435 kts | 167° |
| 2026-04-30 14:28 | 33.40150 | 129.92584 | 40854 ft | 448 kts | 164° |
| 2026-04-30 14:28 | 33.34646 | 129.96407 | 40886 ft | 466 kts | 161° |
| 2026-04-30 14:29 | 33.28994 | 130.00466 | 40885 ft | 481 kts | 161° |
| 2026-04-30 14:29 | 33.23245 | 130.04602 | 40871 ft | 483 kts | 161° |
| 2026-04-30 14:30 | 33.14602 | 130.10795 | 40492 ft | 488 kts | 161° |
| 2026-04-30 14:31 | 33.08774 | 130.14987 | 39177 ft | 490 kts | 161° |
| 2026-04-30 14:31 | 33.02840 | 130.18672 | 37776 ft | 468 kts | 173° |
| 2026-04-30 14:31 | 32.99768 | 130.19776 | 37044 ft | 458 kts | 178° |
| 2026-04-30 14:32 | 32.93579 | 130.21235 | 35625 ft | 449 kts | 182° |
| 2026-04-30 14:32 | 32.90542 | 130.21813 | 34945 ft | 445 kts | 182° |
| 2026-04-30 14:32 | 32.87493 | 130.22362 | 34219 ft | 442 kts | 182° |
| 2026-04-30 14:33 | 32.84461 | 130.22891 | 33507 ft | 437 kts | 183° |
| 2026-04-30 14:33 | 32.78270 | 130.23699 | 32056 ft | 458 kts | 188° |
| 2026-04-30 14:33 | 32.75074 | 130.23733 | 31360 ft | 461 kts | 190° |
| 2026-04-30 14:34 | 32.71852 | 130.23637 | 30682 ft | 464 kts | 191° |
| 2026-04-30 14:34 | 32.68610 | 130.23477 | 30125 ft | 468 kts | 192° |
| 2026-04-30 14:34 | 32.65357 | 130.23289 | 29876 ft | 469 kts | 192° |
| 2026-04-30 14:34 | 32.62145 | 130.23099 | 29888 ft | 468 kts | 192° |
| 2026-04-30 14:35 | 32.55554 | 130.23478 | 29891 ft | 493 kts | 177° |
| 2026-04-30 14:35 | 32.52248 | 130.24777 | 29894 ft | 509 kts | 169° |
| 2026-04-30 14:36 | 32.45797 | 130.28549 | 29885 ft | 522 kts | 163° |
| 2026-04-30 14:36 | 32.39446 | 130.32802 | 29895 ft | 527 kts | 162° |
| 2026-04-30 14:37 | 32.33138 | 130.37154 | 29029 ft | 530 kts | 162° |
| 2026-04-30 14:37 | 32.29879 | 130.39099 | 28250 ft | 518 kts | 168° |
| 2026-04-30 14:37 | 32.26543 | 130.40591 | 27491 ft | 509 kts | 172° |
| 2026-04-30 14:37 | 32.23189 | 130.41861 | 26757 ft | 502 kts | 173° |
| 2026-04-30 14:38 | 32.19863 | 130.43006 | 26033 ft | 493 kts | 174° |
| 2026-04-30 14:38 | 32.16588 | 130.44071 | 25291 ft | 486 kts | 174° |
| 2026-04-30 14:38 | 32.13341 | 130.45081 | 24612 ft | 479 kts | 175° |
| 2026-04-30 14:38 | 32.10175 | 130.46035 | 23940 ft | 473 kts | 175° |
| 2026-04-30 14:39 | 32.06997 | 130.46967 | 23244 ft | 467 kts | 175° |
| 2026-04-30 14:39 | 32.03858 | 130.47867 | 22437 ft | 463 kts | 175° |
| 2026-04-30 14:39 | 32.00737 | 130.48742 | 21680 ft | 460 kts | 175° |
| 2026-04-30 14:40 | 31.94529 | 130.50426 | 20211 ft | 455 kts | 175° |
| 2026-04-30 14:40 | 31.91445 | 130.51243 | 19482 ft | 453 kts | 175° |
| 2026-04-30 14:40 | 31.88372 | 130.52048 | 18793 ft | 451 kts | 175° |
| 2026-04-30 14:40 | 31.85316 | 130.52840 | 18108 ft | 449 kts | 175° |
| 2026-04-30 14:41 | 31.82316 | 130.53611 | 17340 ft | 446 kts | 175° |
| 2026-04-30 14:41 | 31.79306 | 130.54493 | 16583 ft | 448 kts | 169° |
| 2026-04-30 14:41 | 31.76390 | 130.55823 | 15666 ft | 450 kts | 164° |
| 2026-04-30 14:41 | 31.73550 | 130.57317 | 14830 ft | 444 kts | 162° |
| 2026-04-30 14:42 | 31.70833 | 130.58805 | 14201 ft | 423 kts | 162° |
| 2026-04-30 14:42 | 31.68530 | 130.60707 | 14618 ft | 404 kts | 126° |
| 2026-04-30 14:42 | 31.67909 | 130.63850 | 13621 ft | 397 kts | 83° |
| 2026-04-30 14:42 | 31.68783 | 130.66927 | 10337 ft | 405 kts | 51° |
| 2026-04-30 14:43 | 31.70605 | 130.69462 | 8215 ft | 403 kts | 40° |
| 2026-04-30 14:43 | 31.72554 | 130.71583 | 7691 ft | 362 kts | 31° |
| 2026-04-30 14:43 | 31.74217 | 130.73452 | 8408 ft | 313 kts | 53° |
| 2026-04-30 14:43 | 31.75159 | 130.75643 | 9039 ft | 282 kts | 68° |
| 2026-04-30 14:44 | 31.75897 | 130.77597 | 10217 ft | 244 kts | 66° |
| 2026-04-30 14:44 | 31.76536 | 130.79364 | 10952 ft | 234 kts | 71° |
| 2026-04-30 14:44 | 31.77124 | 130.81272 | 10919 ft | 263 kts | 74° |
| 2026-04-30 14:44 | 31.77710 | 130.83425 | 10801 ft | 287 kts | 77° |
| 2026-04-30 14:45 | 31.78314 | 130.85671 | 11100 ft | 285 kts | 74° |
| 2026-04-30 14:45 | 31.78953 | 130.87873 | 11302 ft | 291 kts | 75° |
| 2026-04-30 14:45 | 31.79523 | 130.90168 | 11211 ft | 300 kts | 79° |
| 2026-04-30 14:45 | 31.80081 | 130.92565 | 11064 ft | 309 kts | 77° |
| 2026-04-30 14:46 | 31.80674 | 130.95025 | 10906 ft | 315 kts | 78° |
| 2026-04-30 14:46 | 31.81288 | 130.97573 | 10376 ft | 332 kts | 76° |
| 2026-04-30 14:46 | 31.81955 | 131.00215 | 9971 ft | 341 kts | 76° |
| 2026-04-30 14:46 | 31.82682 | 131.02899 | 9872 ft | 348 kts | 74° |
| 2026-04-30 14:47 | 31.83406 | 131.05680 | 9859 ft | 365 kts | 73° |
| 2026-04-30 14:47 | 31.84231 | 131.08655 | 9878 ft | 405 kts | 73° |
| 2026-04-30 14:47 | 31.85108 | 131.11980 | 9969 ft | 441 kts | 73° |
| 2026-04-30 14:47 | 31.86093 | 131.15478 | 10030 ft | 456 kts | 70° |
| 2026-04-30 14:48 | 31.87220 | 131.18931 | 10034 ft | 460 kts | 69° |
| 2026-04-30 14:48 | 31.88412 | 131.22408 | 10035 ft | 458 kts | 68° |
| 2026-04-30 14:48 | 31.89645 | 131.25871 | 9992 ft | 459 kts | 68° |
| 2026-04-30 14:48 | 31.90858 | 131.29344 | 9980 ft | 459 kts | 69° |
| 2026-04-30 14:49 | 31.92008 | 131.32838 | 9986 ft | 459 kts | 70° |
| 2026-04-30 14:49 | 31.93142 | 131.36341 | 9970 ft | 457 kts | 71° |
| 2026-04-30 14:49 | 31.93890 | 131.39975 | 9982 ft | 454 kts | 83° |
| 2026-04-30 14:49 | 31.93878 | 131.43668 | 10277 ft | 441 kts | 105° |
| 2026-04-30 14:50 | 31.89763 | 131.47754 | 10483 ft | 417 kts | 187° |
| 2026-04-30 14:50 | 31.87311 | 131.46479 | 10972 ft | 374 kts | 229° |
| 2026-04-30 14:51 | 31.86643 | 131.41045 | 12615 ft | 314 kts | 272° |
| 2026-04-30 14:51 | 31.87040 | 131.38716 | 12585 ft | 271 kts | 276° |
| 2026-04-30 14:51 | 31.87222 | 131.34721 | 12812 ft | 199 kts | 251° |
| 2026-04-30 14:52 | 31.86741 | 131.33153 | 11131 ft | 223 kts | 249° |
| 2026-04-30 14:52 | 31.85527 | 131.29034 | 6357 ft | 276 kts | 252° |
| 2026-04-30 14:52 | 31.84969 | 131.27029 | 5950 ft | 253 kts | 250° |
| 2026-04-30 14:53 | 31.83835 | 131.23301 | 4838 ft | 234 kts | 240° |
| 2026-04-30 14:53 | 31.83005 | 131.21690 | 5292 ft | 223 kts | 242° |
| 2026-04-30 14:54 | 31.81517 | 131.18810 | 6517 ft | 197 kts | 240° |
| 2026-04-30 14:54 | 31.80219 | 131.16091 | 6806 ft | 187 kts | 238° |
| 2026-04-30 14:55 | 31.78664 | 131.13216 | 3255 ft | 206 kts | 237° |
| 2026-04-30 14:55 | 31.77877 | 131.11895 | 3504 ft | 196 kts | 237° |
| 2026-04-30 14:55 | 31.76250 | 131.09369 | 4004 ft | 188 kts | 233° |
| 2026-04-30 14:56 | 31.74900 | 131.06993 | 5110 ft | 160 kts | 239° |
| 2026-04-30 14:56 | 31.73672 | 131.04741 | 5806 ft | 171 kts | 238° |
| 2026-04-30 14:57 | 31.73050 | 131.03520 | 5954 ft | 179 kts | 239° |
| 2026-04-30 14:57 | 31.71681 | 131.00667 | 5184 ft | 210 kts | 241° |
| 2026-04-30 14:58 | 31.70232 | 130.97778 | 5214 ft | 195 kts | 241° |
| 2026-04-30 14:58 | 31.69539 | 130.96403 | 5015 ft | 202 kts | 241° |
| 2026-04-30 14:58 | 31.67960 | 130.93451 | 4212 ft | 214 kts | 237° |
| 2026-04-30 14:59 | 31.66527 | 130.90527 | 4224 ft | 195 kts | 263° |
| 2026-04-30 15:00 | 31.66201 | 130.85728 | 3991 ft | 199 kts | 251° |
| 2026-04-30 15:00 | 31.66749 | 130.82834 | 4320 ft | 195 kts | 286° |
| 2026-04-30 15:01 | 31.67981 | 130.80060 | 4231 ft | 191 kts | 337° |
| 2026-04-30 15:01 | 31.69183 | 130.79613 | 4029 ft | 169 kts | 337° |
| 2026-04-30 15:01 | 31.71340 | 130.78582 | 2749 ft | 166 kts | 318° |
| 2026-04-30 15:02 | 31.72266 | 130.77794 | 2340 ft | 164 kts | 322° |
| 2026-04-30 15:02 | 31.73211 | 130.77004 | 1740 ft | 172 kts | 321° |
| 2026-04-30 15:03 | 31.76185 | 130.74854 | 1219 ft | 174 kts | 321° |
| 2026-04-30 15:03 | 31.78105 | 130.73439 | 1065 ft | 163 kts | 335° |
| 2026-04-30 15:04 | 31.79953 | 130.72111 | 1145 ft | 163 kts | 332° |
| 2026-04-30 15:04 | 31.82296 | 130.69654 | 3052 ft | 164 kts | 281° |
| 2026-04-30 15:05 | 31.82906 | 130.65805 | 5088 ft | 162 kts | 275° |
| 2026-04-30 15:06 | 31.82636 | 130.62989 | 6173 ft | 201 kts | 248° |
| 2026-04-30 15:06 | 31.80676 | 130.59756 | 5455 ft | 280 kts | 231° |
| 2026-04-30 15:07 | 31.77741 | 130.57455 | 7515 ft | 231 kts | 199° |
| 2026-04-30 15:07 | 31.74609 | 130.57645 | 9267 ft | 240 kts | 175° |
| 2026-04-30 15:08 | 31.71058 | 130.60343 | 5385 ft | 370 kts | 131° |
| 2026-04-30 15:08 | 31.70402 | 130.68666 | 4651 ft | 346 kts | 96° |
| 2026-04-30 15:09 | 31.68908 | 130.73896 | 5258 ft | 301 kts | 117° |
| 2026-04-30 15:09 | 31.68643 | 130.78353 | 6521 ft | 260 kts | 80° |
| 2026-04-30 15:10 | 31.70395 | 130.80971 | 5550 ft | 188 kts | 337° |
| 2026-04-30 15:11 | 31.73779 | 130.76996 | 2561 ft | 170 kts | 294° |
| 2026-04-30 15:11 | 31.75528 | 130.75173 | 1573 ft | 191 kts | 330° |
| 2026-04-30 15:12 | 31.78684 | 130.73080 | 1022 ft | 159 kts | 323° |
| 2026-04-30 15:13 | 31.80119 | 130.72091 | 909 ft | 40 kts | 329° |
| 2026-04-30 15:14 | 31.80507 | 130.71807 | 919 ft | 8 kts | 295° |
| 2026-04-30 15:14 | 31.80455 | 130.71667 | 919 ft | 7 kts | 210° |
| 2026-04-30 15:16 | 31.80278 | 130.71738 | 914 ft | 3 kts | 196° |
| 2026-04-30 15:17 | 31.80221 | 130.71635 | 911 ft | 0 kts | 243° |